createdAt,value
2022-10-19T00:02:36.530Z,98956.45
2022-10-19T00:05:38.013Z,98957.10
2022-10-19T00:08:39.753Z,98954.79
2022-10-19T00:11:44.417Z,98957.08
2022-10-19T00:14:45.869Z,98958.75
2022-10-19T00:17:47.338Z,98952.90
2022-10-19T00:20:48.792Z,98946.95
2022-10-19T00:23:50.290Z,98948.31
2022-10-19T00:26:51.718Z,98945.78
2022-10-19T00:29:53.729Z,98944.20
2022-10-19T00:32:55.214Z,98942.55
2022-10-19T00:35:56.746Z,98938.11
2022-10-19T00:38:59.092Z,98936.38
2022-10-19T00:42:00.478Z,98930.91
2022-10-19T00:45:11.043Z,98931.31
2022-10-19T00:48:34.709Z,98920.48
2022-10-19T00:51:40.192Z,98920.39
2022-10-19T00:54:43.988Z,98923.39
2022-10-19T00:57:45.430Z,98921.65
2022-10-19T01:00:47.279Z,98923.24
2022-10-19T01:03:49.270Z,98920.86
2022-10-19T01:06:52.867Z,98918.56
2022-10-19T01:09:55.311Z,98917.06
2022-10-19T01:13:11.917Z,98921.02
2022-10-19T01:16:21.129Z,98912.73
2022-10-19T01:19:53.371Z,98911.16
2022-10-19T01:23:13.666Z,98915.36
2022-10-19T01:26:34.361Z,98912.52
2022-10-19T01:29:59.545Z,98912.45
2022-10-19T01:33:16.732Z,98905.91
2022-10-19T01:36:24.465Z,98907.25
2022-10-19T01:39:38.585Z,98907.41
2022-10-19T01:42:47.011Z,98912.27
2022-10-19T01:46:20.743Z,98909.98
2022-10-19T01:49:33.400Z,98909.04
2022-10-19T01:52:37.357Z,98906.59
2022-10-19T01:55:42.524Z,98909.45
2022-10-19T01:58:45.945Z,98909.21
2022-10-19T02:01:50.550Z,98910.16
2022-10-19T02:04:54.490Z,98906.14
2022-10-19T02:08:01.273Z,98907.64
2022-10-19T02:11:03.708Z,98896.88
2022-10-19T02:14:10.836Z,98893.58
2022-10-19T02:17:16.456Z,98886.70
2022-10-19T02:20:19.526Z,98888.52
2022-10-19T02:23:25.596Z,98887.10
2022-10-19T02:26:27.100Z,98883.31
2022-10-19T02:29:28.657Z,98879.60
2022-10-19T02:32:30.145Z,98883.09
2022-10-19T02:35:31.669Z,98890.16
2022-10-19T02:38:33.581Z,98885.41
2022-10-19T02:41:44.126Z,98884.64
2022-10-19T02:44:56.890Z,98886.64
2022-10-19T02:48:11.503Z,98889.66
2022-10-19T02:51:39.888Z,98889.59
2022-10-19T02:54:43.483Z,98886.77
2022-10-19T02:57:44.991Z,98888.13
2022-10-19T03:00:46.586Z,98894.06
2022-10-19T03:03:48.139Z,98890.52
2022-10-19T03:06:49.660Z,98887.55
2022-10-19T03:09:51.243Z,98890.16
2022-10-19T03:12:52.703Z,98890.73
2022-10-19T03:15:54.133Z,98891.61
2022-10-19T03:18:55.682Z,98890.76
2022-10-19T03:21:57.550Z,98895.19
2022-10-19T03:24:59.010Z,98892.52
2022-10-19T03:28:00.655Z,98894.02
2022-10-19T03:31:02.142Z,98899.80
2022-10-19T03:34:03.807Z,98895.95
2022-10-19T03:37:07.937Z,98898.56
2022-10-19T03:40:09.723Z,98892.64
2022-10-19T03:43:11.207Z,98895.17
2022-10-19T03:46:12.700Z,98891.07
2022-10-19T03:49:14.314Z,98889.02
2022-10-19T03:52:18.227Z,98890.29
2022-10-19T03:55:19.688Z,98888.64
2022-10-19T03:58:21.143Z,98888.89
2022-10-19T04:01:33.659Z,98890.71
2022-10-19T04:04:35.415Z,98890.48
2022-10-19T04:07:36.880Z,98885.19
2022-10-19T04:10:38.353Z,98886.24
2022-10-19T04:13:40.213Z,98888.69
2022-10-19T04:16:41.819Z,98888.38
2022-10-19T04:19:43.377Z,98890.85
2022-10-19T04:22:44.903Z,98885.71
2022-10-19T04:25:46.489Z,98883.52
2022-10-19T04:28:48.296Z,98881.23
2022-10-19T04:31:51.437Z,98876.65
2022-10-19T04:34:52.999Z,98878.24
2022-10-19T04:37:54.459Z,98877.30
2022-10-19T04:41:01.527Z,98878.26
2022-10-19T04:44:08.628Z,98878.34
2022-10-19T04:47:10.275Z,98876.77
2022-10-19T04:50:11.785Z,98871.23
2022-10-19T04:53:13.272Z,98871.10
2022-10-19T04:56:17.935Z,98859.96
2022-10-19T04:59:19.573Z,98853.96
2022-10-19T05:02:21.081Z,98857.77
2022-10-19T05:05:23.714Z,98859.52
2022-10-19T05:08:25.154Z,98856.85
2022-10-19T05:11:27.013Z,98853.20
2022-10-19T05:17:35.408Z,98853.28
2022-10-19T05:20:37.004Z,98852.58
2022-10-19T05:23:39.998Z,98853.52
2022-10-19T05:26:41.530Z,98852.41
2022-10-19T05:29:43.200Z,98848.06
2022-10-19T05:32:44.815Z,98848.70
2022-10-19T05:35:46.427Z,98850.91
2022-10-19T05:38:53.375Z,98850.99
2022-10-19T05:41:55.385Z,98851.46
2022-10-19T05:44:56.941Z,98851.31
2022-10-19T05:47:58.418Z,98856.90
2022-10-19T05:51:01.617Z,98859.27
2022-10-19T05:54:03.353Z,98855.48
2022-10-19T05:57:04.823Z,98858.09
2022-10-19T06:00:06.845Z,98860.46
2022-10-19T06:03:13.208Z,98864.11
2022-10-19T06:06:14.729Z,98873.19
2022-10-19T06:09:16.248Z,98873.10
2022-10-19T06:12:20.440Z,98871.19
2022-10-19T06:15:24.413Z,98874.91
2022-10-19T06:18:26.051Z,98876.71
2022-10-19T06:21:29.735Z,98879.41
2022-10-19T06:24:31.676Z,98885.96
2022-10-19T06:27:33.959Z,98886.11
2022-10-19T06:30:40.352Z,98887.36
2022-10-19T06:33:44.294Z,98888.08
2022-10-19T06:36:46.603Z,98890.68
2022-10-19T06:39:48.183Z,98892.73
2022-10-19T06:42:49.990Z,98894.23
2022-10-19T06:45:51.691Z,98894.41
2022-10-19T06:48:58.476Z,98896.37
2022-10-19T06:52:00.041Z,98898.02
2022-10-19T06:55:02.036Z,98906.89
2022-10-19T06:58:03.854Z,98907.67
2022-10-19T07:01:08.301Z,98908.00
2022-10-19T07:05:32.835Z,98912.88
2022-10-19T07:08:38.996Z,98909.34
2022-10-19T07:11:52.522Z,98912.48
2022-10-19T07:14:57.568Z,98914.48
2022-10-19T07:17:59.262Z,98915.73
2022-10-19T07:21:04.316Z,98921.25
2022-10-19T07:24:06.089Z,98924.16
2022-10-19T07:27:07.706Z,98930.26
2022-10-19T07:30:09.531Z,98930.16
2022-10-19T07:33:11.111Z,98924.95
2022-10-19T07:36:13.359Z,98919.33
2022-10-19T07:39:16.433Z,98921.69
2022-10-19T07:42:18.010Z,98927.52
2022-10-19T07:45:19.619Z,98934.30
2022-10-19T07:48:21.128Z,98931.62
2022-10-19T07:51:22.901Z,98931.80
2022-10-19T07:54:26.755Z,98935.51
2022-10-19T07:57:28.472Z,98936.30
2022-10-19T08:00:30.253Z,98929.59
2022-10-19T08:07:04.806Z,98932.11
2022-10-19T08:10:07.101Z,98929.34
2022-10-19T08:13:16.038Z,98930.29
2022-10-19T08:16:29.890Z,98925.55
2022-10-19T08:19:31.648Z,98928.63
2022-10-19T08:22:33.394Z,98939.86
2022-10-19T08:25:36.670Z,98941.77
2022-10-19T08:28:38.116Z,98942.33
2022-10-19T08:31:40.537Z,98934.03
2022-10-19T08:34:42.051Z,98936.55
2022-10-19T08:37:45.681Z,98938.60
2022-10-19T08:40:47.590Z,98942.48
2022-10-19T08:44:06.335Z,98943.41
2022-10-19T08:47:41.537Z,98943.89
2022-10-19T08:50:45.099Z,98940.98
2022-10-19T08:53:56.834Z,98930.30
2022-10-19T08:57:14.405Z,98931.89
2022-10-19T09:00:34.573Z,98942.14
2022-10-19T09:04:06.093Z,98940.34
2022-10-19T09:07:19.014Z,98935.04
2022-10-19T09:10:26.043Z,98931.57
2022-10-19T09:13:41.562Z,98933.30
2022-10-19T09:17:00.954Z,98937.64
2022-10-19T09:20:21.202Z,98938.67
2022-10-19T09:23:28.725Z,98943.04
2022-10-19T09:26:39.433Z,98950.05
2022-10-19T09:29:47.102Z,98949.34
2022-10-19T09:32:59.883Z,98953.14
2022-10-19T09:36:03.936Z,98951.24
2022-10-19T09:39:05.577Z,98953.05
2022-10-19T09:42:11.861Z,98957.63
2022-10-19T09:45:31.656Z,98956.05
2022-10-19T09:48:47.037Z,98955.35
2022-10-19T09:51:51.614Z,98962.21
2022-10-19T09:55:02.929Z,98960.88
2022-10-19T09:58:15.761Z,98958.02
2022-10-19T10:01:43.038Z,98957.86
2022-10-19T10:04:47.181Z,98958.02
2022-10-19T10:07:54.660Z,98961.02
2022-10-19T10:11:08.544Z,98958.59
2022-10-19T10:14:29.826Z,98956.53
2022-10-19T10:17:31.787Z,98956.92
2022-10-19T10:20:33.317Z,98958.13
2022-10-19T10:23:35.988Z,98960.58
2022-10-19T10:26:40.706Z,98959.70
2022-10-19T10:29:54.400Z,98961.77
2022-10-19T10:32:57.983Z,98958.77
2022-10-19T10:36:09.860Z,98956.07
2022-10-19T10:39:16.679Z,98960.81
2022-10-19T10:42:22.198Z,98959.15
2022-10-19T10:45:37.349Z,98960.88
2022-10-19T10:48:43.663Z,98955.81
2022-10-19T10:51:52.912Z,98953.27
2022-10-19T10:55:04.696Z,98953.09
2022-10-19T10:58:21.224Z,98947.54
2022-10-19T11:01:27.281Z,98942.23
2022-10-19T11:04:38.017Z,98935.18
2022-10-19T11:07:45.536Z,98938.48
2022-10-19T11:11:20.802Z,98934.21
2022-10-19T11:14:47.223Z,98932.88
2022-10-19T11:17:58.352Z,98928.63
2022-10-19T11:21:10.383Z,98932.34
2022-10-19T11:24:15.623Z,98931.33
2022-10-19T11:27:42.622Z,98940.89
2022-10-19T11:30:56.726Z,98941.86
2022-10-19T11:34:27.666Z,98938.78
2022-10-19T11:38:17.439Z,98932.87
2022-10-19T11:41:41.287Z,98927.58
2022-10-19T11:44:58.798Z,98934.14
2022-10-19T11:48:13.470Z,98932.00
2022-10-19T11:51:29.387Z,98927.18
2022-10-19T11:54:57.676Z,98926.87
2022-10-19T11:58:05.960Z,98916.06
2022-10-19T12:01:29.039Z,98919.23
2022-10-19T12:04:39.436Z,98922.08
2022-10-19T12:07:56.134Z,98921.84
2022-10-19T12:11:09.331Z,98922.65
2022-10-19T12:14:16.927Z,98921.30
2022-10-19T12:17:25.209Z,98920.28
2022-10-19T12:20:45.694Z,98916.19
2022-10-19T12:23:48.011Z,98912.15
2022-10-19T12:26:50.917Z,98907.42
2022-10-19T12:29:53.609Z,98908.44
2022-10-19T12:33:09.032Z,98912.38
2022-10-19T12:36:18.943Z,98910.47
2022-10-19T12:39:42.575Z,98908.72
2022-10-19T12:43:16.604Z,98904.84
2022-10-19T12:46:27.197Z,98908.36
2022-10-19T12:49:28.575Z,98905.89
2022-10-19T12:52:47.660Z,98902.34
2022-10-19T12:55:59.871Z,98905.96
2022-10-19T12:59:01.849Z,98906.50
2022-10-19T13:02:21.631Z,98910.52
2022-10-19T13:05:27.064Z,98906.33
2022-10-19T13:08:46.170Z,98908.16
2022-10-19T13:12:21.291Z,98905.16
2022-10-19T13:15:37.042Z,98905.63
2022-10-19T13:18:57.204Z,98910.14
2022-10-19T13:22:01.778Z,98906.91
2022-10-19T13:25:15.648Z,98909.45
2022-10-19T13:28:26.172Z,98916.98
2022-10-19T13:31:30.890Z,98920.22
2022-10-19T13:34:33.058Z,98925.91
2022-10-19T13:37:34.898Z,98928.70
2022-10-19T13:40:40.966Z,98935.34
2022-10-19T13:43:56.817Z,98933.05
2022-10-19T13:47:21.422Z,98938.44
2022-10-19T13:50:48.522Z,98936.57
2022-10-19T13:53:54.615Z,98937.04
2022-10-19T13:57:14.727Z,98938.39
2022-10-19T14:00:24.464Z,98937.30
2022-10-19T14:03:59.967Z,98937.14
2022-10-19T14:07:18.453Z,98940.61
2022-10-19T14:10:25.186Z,98940.22
2022-10-19T14:13:34.467Z,98941.88
2022-10-19T14:16:46.409Z,98944.79
2022-10-19T14:19:51.694Z,98944.40
2022-10-19T14:22:53.486Z,98947.96
2022-10-19T14:26:01.142Z,98941.56
2022-10-19T14:29:03.572Z,98936.90
2022-10-19T14:32:05.193Z,98932.27
2022-10-19T14:35:19.950Z,98930.59
2022-10-19T14:38:25.343Z,98924.60
2022-10-19T14:41:26.886Z,98918.92
2022-10-19T14:44:39.470Z,98919.38
2022-10-19T14:48:16.977Z,98923.42
2022-10-19T14:51:38.024Z,98927.53
2022-10-19T14:54:46.229Z,98926.59
2022-10-19T14:57:53.146Z,98924.23
2022-10-19T15:00:55.242Z,98926.77
2022-10-19T15:03:56.888Z,98933.00
2022-10-19T15:07:01.592Z,98928.27
2022-10-19T15:10:07.844Z,98924.09
2022-10-19T15:13:25.807Z,98930.95
2022-10-19T15:16:46.051Z,98940.50
2022-10-19T15:19:47.803Z,98941.36
2022-10-19T15:22:49.437Z,98940.58
2022-10-19T15:26:01.465Z,98937.10
2022-10-19T15:29:18.886Z,98938.29
2022-10-19T15:32:24.339Z,98940.90
2022-10-19T15:35:29.855Z,98945.93
2022-10-19T15:38:34.256Z,98946.64
2022-10-19T15:41:38.079Z,98953.05
2022-10-19T15:44:42.914Z,98954.46
2022-10-19T15:48:10.324Z,98958.24
2022-10-19T15:51:23.982Z,98954.38
2022-10-19T15:54:25.623Z,98953.82
2022-10-19T15:57:36.055Z,98957.06
2022-10-19T16:00:38.723Z,98959.58
2022-10-19T16:03:40.323Z,98960.77
2022-10-19T16:06:44.981Z,98956.66
2022-10-19T16:09:47.157Z,98967.24
2022-10-19T16:12:48.785Z,98973.55
2022-10-19T16:16:01.375Z,98971.02
2022-10-19T16:19:14.899Z,98974.48
2022-10-19T16:22:19.016Z,98979.15
2022-10-19T16:25:24.294Z,98975.67
2022-10-19T16:28:31.444Z,98979.45
2022-10-19T16:31:33.571Z,98989.40
2022-10-19T16:34:37.654Z,98990.52
2022-10-19T16:37:42.446Z,98993.50
2022-10-19T16:40:45.946Z,98997.61
2022-10-19T16:43:53.442Z,98995.48
2022-10-19T16:46:57.898Z,98992.79
2022-10-19T16:50:00.790Z,98996.35
2022-10-19T16:53:11.674Z,99000.76
2022-10-19T16:56:13.313Z,98999.73
2022-10-19T16:59:18.147Z,99007.45
2022-10-19T17:02:22.062Z,99014.48
2022-10-19T17:05:23.692Z,99018.80
2022-10-19T17:08:37.103Z,99028.98
2022-10-19T17:11:46.875Z,99032.85
2022-10-19T17:14:48.490Z,99035.84
2022-10-19T17:17:50.343Z,99037.34
2022-10-19T17:20:52.073Z,99040.95
2022-10-19T17:23:56.137Z,99046.16
2022-10-19T17:27:03.586Z,99047.82
2022-10-19T17:30:05.841Z,99046.64
2022-10-19T17:33:07.436Z,99050.19
2022-10-19T17:36:12.401Z,99057.44
2022-10-19T17:39:25.610Z,99062.41
2022-10-19T17:42:31.553Z,99070.94
2022-10-19T17:45:33.036Z,99064.33
2022-10-19T17:48:36.937Z,99061.34
2022-10-19T17:51:39.095Z,99062.06
2022-10-19T17:54:48.868Z,99062.70
2022-10-19T17:58:02.003Z,99070.13
2022-10-19T18:01:04.850Z,99071.23
2022-10-19T18:04:06.664Z,99070.21
2022-10-19T18:07:08.212Z,99077.79
2022-10-19T18:10:09.874Z,99082.59
2022-10-19T18:13:11.516Z,99086.29
2022-10-19T18:16:15.330Z,99087.77
2022-10-19T18:19:17.116Z,99092.02
2022-10-19T18:22:21.128Z,99089.80
2022-10-19T18:25:42.163Z,99092.31
2022-10-19T18:28:44.886Z,99093.25
2022-10-19T18:31:51.704Z,99093.09
2022-10-19T18:34:53.326Z,99092.27
2022-10-19T18:37:54.891Z,99095.72
2022-10-19T18:41:02.275Z,99102.41
2022-10-19T18:44:06.303Z,99099.48
2022-10-19T18:47:21.243Z,99103.89
2022-10-19T18:50:23.531Z,99103.64
2022-10-19T18:53:25.169Z,99107.95
2022-10-19T18:56:28.791Z,99109.75
2022-10-19T18:59:30.355Z,99107.21
2022-10-19T19:02:42.295Z,99105.15
2022-10-19T19:05:47.470Z,99106.30
2022-10-19T19:08:49.265Z,99105.02
2022-10-19T19:11:53.551Z,99108.85
2022-10-19T19:14:55.075Z,99107.78
2022-10-19T19:17:56.536Z,99112.80
2022-10-19T19:20:58.040Z,99115.53
2022-10-19T19:24:01.220Z,99120.55
2022-10-19T19:27:02.848Z,99128.09
2022-10-19T19:30:04.725Z,99131.46
2022-10-19T19:33:06.224Z,99133.33
2022-10-19T19:36:09.680Z,99134.35
2022-10-19T19:39:11.201Z,99134.65
2022-10-19T19:42:14.301Z,99133.15
2022-10-19T19:45:16.319Z,99135.27
2022-10-19T19:48:20.378Z,99138.48
2022-10-19T19:51:24.597Z,99138.67
2022-10-19T19:54:26.169Z,99138.89
2022-10-19T19:57:31.680Z,99144.45
2022-10-19T20:00:36.020Z,99150.23
2022-10-19T20:03:38.245Z,99157.20
2022-10-19T20:06:40.266Z,99157.62
2022-10-19T20:09:41.719Z,99159.85
2022-10-19T20:12:47.220Z,99164.59
2022-10-19T20:15:49.767Z,99171.23
2022-10-19T20:18:59.359Z,99177.08
2022-10-19T20:22:01.108Z,99177.98
2022-10-19T20:25:03.324Z,99176.19
2022-10-19T20:28:05.153Z,99176.45
2022-10-19T20:31:08.810Z,99179.55
2022-10-19T20:34:13.143Z,99180.75
2022-10-19T20:37:14.574Z,99177.05
2022-10-19T20:40:16.760Z,99177.08
2022-10-19T20:43:18.353Z,99177.42
2022-10-19T20:46:22.367Z,99174.16
2022-10-19T20:49:27.010Z,99169.90
2022-10-19T20:52:29.510Z,99174.48
2022-10-19T20:55:35.224Z,99174.64
2022-10-19T20:58:42.709Z,99178.10
2022-10-19T21:01:48.652Z,99179.69
2022-10-19T21:04:50.533Z,99176.64
2022-10-19T21:07:52.739Z,99178.71
2022-10-19T21:10:56.938Z,99184.09
2022-10-19T21:14:01.537Z,99184.52
2022-10-19T21:17:02.986Z,99180.44
2022-10-19T21:20:04.817Z,99182.57
2022-10-19T21:23:06.452Z,99179.69
2022-10-19T21:26:08.403Z,99177.04
2022-10-19T21:29:12.115Z,99175.56
2022-10-19T21:32:13.620Z,99174.88
2022-10-19T21:35:15.279Z,99174.75
2022-10-19T21:38:16.809Z,99174.48
2022-10-19T21:41:23.747Z,99173.44
2022-10-19T21:44:27.871Z,99174.48
2022-10-19T21:47:29.271Z,99175.33
2022-10-19T21:50:30.831Z,99172.04
2022-10-19T21:53:32.380Z,99171.20
2022-10-19T21:56:34.200Z,99173.91
2022-10-19T21:59:35.695Z,99175.97
2022-10-19T22:02:37.141Z,99177.25
2022-10-19T22:05:39.182Z,99179.95
2022-10-19T22:08:44.813Z,99186.31
2022-10-19T22:11:46.405Z,99187.60
2022-10-19T22:14:47.831Z,99186.59
2022-10-19T22:17:49.480Z,99185.69
2022-10-19T22:20:50.912Z,99187.03
2022-10-19T22:23:59.992Z,99185.20
2022-10-19T22:27:01.706Z,99185.89
2022-10-19T22:30:03.406Z,99185.84
2022-10-19T22:33:04.878Z,99187.11
2022-10-19T22:36:09.130Z,99194.95
2022-10-19T22:39:11.141Z,99198.81
2022-10-19T22:42:12.746Z,99197.57
2022-10-19T22:45:14.395Z,99196.00
2022-10-19T22:48:17.352Z,99200.07
2022-10-19T22:51:18.990Z,99202.22
2022-10-19T22:54:20.602Z,99202.79
2022-10-19T22:57:22.169Z,99204.24
2022-10-19T23:00:24.793Z,99209.49
2022-10-19T23:03:26.434Z,99205.91
2022-10-19T23:06:28.106Z,99207.38
2022-10-19T23:09:29.681Z,99209.12
2022-10-19T23:12:31.371Z,99210.05
2022-10-19T23:15:33.001Z,99213.95
2022-10-19T23:18:37.744Z,99216.11
2022-10-19T23:21:39.359Z,99218.33
2022-10-19T23:24:40.946Z,99221.02
2022-10-19T23:27:42.645Z,99218.13
2022-10-19T23:30:44.237Z,99219.19
2022-10-19T23:33:46.697Z,99218.85
2022-10-19T23:36:48.292Z,99219.92
2022-10-19T23:39:49.797Z,99224.81
2022-10-19T23:42:51.536Z,99231.72
2022-10-19T23:45:53.150Z,99230.64
2022-10-19T23:48:54.708Z,99232.52
2022-10-19T23:51:56.243Z,99228.48
2022-10-19T23:54:57.782Z,99227.45
2022-10-19T23:57:59.274Z,99229.73
